sensor_id;sensor_type;location;lat;lon;timestamp;temperature;humidity
9810;DHT22;4944;52.514;13.192;2022-10-31T00:02:22;15.20;99.90
9810;DHT22;4944;52.514;13.192;2022-10-31T00:04:49;15.20;99.90
9810;DHT22;4944;52.514;13.192;2022-10-31T00:07:15;15.30;99.90
9810;DHT22;4944;52.514;13.192;2022-10-31T00:09:43;15.30;99.90
9810;DHT22;4944;52.514;13.192;2022-10-31T00:12:10;15.30;99.90
9810;DHT22;4944;52.514;13.192;2022-10-31T00:14:37;15.30;99.90
9810;DHT22;4944;52.514;13.192;2022-10-31T00:17:03;15.40;99.90
9810;DHT22;4944;52.514;13.192;2022-10-31T00:19:30;15.40;99.90
9810;DHT22;4944;52.514;13.192;2022-10-31T00:21:57;15.40;99.90
9810;DHT22;4944;52.514;13.192;2022-10-31T00:24:24;15.40;99.90
9810;DHT22;4944;52.514;13.192;2022-10-31T00:26:52;15.40;99.90
9810;DHT22;4944;52.514;13.192;2022-10-31T00:29:18;15.40;99.90
9810;DHT22;4944;52.514;13.192;2022-10-31T00:31:45;15.40;99.90
9810;DHT22;4944;52.514;13.192;2022-10-31T00:34:12;15.40;99.90
9810;DHT22;4944;52.514;13.192;2022-10-31T00:36:38;15.40;99.90
9810;DHT22;4944;52.514;13.192;2022-10-31T00:39:05;15.30;99.90
9810;DHT22;4944;52.514;13.192;2022-10-31T00:41:34;15.30;99.90
9810;DHT22;4944;52.514;13.192;2022-10-31T00:44:02;15.40;99.90
9810;DHT22;4944;52.514;13.192;2022-10-31T00:46:29;15.40;99.90
9810;DHT22;4944;52.514;13.192;2022-10-31T00:48:55;15.40;99.90
9810;DHT22;4944;52.514;13.192;2022-10-31T00:51:22;15.40;99.90
9810;DHT22;4944;52.514;13.192;2022-10-31T00:53:49;15.40;99.90
9810;DHT22;4944;52.514;13.192;2022-10-31T00:56:16;15.40;99.90
9810;DHT22;4944;52.514;13.192;2022-10-31T00:58:42;15.40;99.90
9810;DHT22;4944;52.514;13.192;2022-10-31T01:01:10;15.40;99.90
9810;DHT22;4944;52.514;13.192;2022-10-31T01:03:37;15.30;99.90
9810;DHT22;4944;52.514;13.192;2022-10-31T01:06:07;15.40;99.90
9810;DHT22;4944;52.514;13.192;2022-10-31T01:08:35;15.40;99.90
9810;DHT22;4944;52.514;13.192;2022-10-31T01:11:05;15.40;99.90
9810;DHT22;4944;52.514;13.192;2022-10-31T01:13:32;15.40;99.90
9810;DHT22;4944;52.514;13.192;2022-10-31T01:16:00;15.40;99.90
9810;DHT22;4944;52.514;13.192;2022-10-31T01:18:28;15.40;99.90
9810;DHT22;4944;52.514;13.192;2022-10-31T01:21:03;15.40;99.90
9810;DHT22;4944;52.514;13.192;2022-10-31T01:23:31;15.40;99.90
9810;DHT22;4944;52.514;13.192;2022-10-31T01:26:07;15.30;99.90
9810;DHT22;4944;52.514;13.192;2022-10-31T01:28:35;15.30;99.90
9810;DHT22;4944;52.514;13.192;2022-10-31T01:31:03;15.30;99.90
9810;DHT22;4944;52.514;13.192;2022-10-31T01:33:31;15.30;99.90
9810;DHT22;4944;52.514;13.192;2022-10-31T01:35:58;15.40;99.90
9810;DHT22;4944;52.514;13.192;2022-10-31T01:38:25;15.40;99.90
9810;DHT22;4944;52.514;13.192;2022-10-31T01:40:52;15.40;99.90
9810;DHT22;4944;52.514;13.192;2022-10-31T01:43:19;15.40;99.90
9810;DHT22;4944;52.514;13.192;2022-10-31T01:45:51;15.40;99.90
9810;DHT22;4944;52.514;13.192;2022-10-31T01:48:24;15.30;99.90
9810;DHT22;4944;52.514;13.192;2022-10-31T01:50:55;15.30;99.90
9810;DHT22;4944;52.514;13.192;2022-10-31T01:53:23;15.10;99.90
9810;DHT22;4944;52.514;13.192;2022-10-31T01:55:50;15.00;99.90
9810;DHT22;4944;52.514;13.192;2022-10-31T01:58:21;15.00;99.90
9810;DHT22;4944;52.514;13.192;2022-10-31T02:00:51;15.00;99.90
9810;DHT22;4944;52.514;13.192;2022-10-31T02:03:20;15.00;99.90
9810;DHT22;4944;52.514;13.192;2022-10-31T02:05:48;15.00;99.90
9810;DHT22;4944;52.514;13.192;2022-10-31T02:08:20;14.90;99.90
9810;DHT22;4944;52.514;13.192;2022-10-31T02:10:48;14.90;99.90
9810;DHT22;4944;52.514;13.192;2022-10-31T02:13:16;14.90;99.90
9810;DHT22;4944;52.514;13.192;2022-10-31T02:15:44;14.90;99.90
9810;DHT22;4944;52.514;13.192;2022-10-31T02:18:11;15.00;99.90
9810;DHT22;4944;52.514;13.192;2022-10-31T02:20:42;15.10;99.90
9810;DHT22;4944;52.514;13.192;2022-10-31T02:23:44;15.00;99.90
9810;DHT22;4944;52.514;13.192;2022-10-31T02:32:17;14.90;99.90
9810;DHT22;4944;52.514;13.192;2022-10-31T02:34:52;14.90;99.90
9810;DHT22;4944;52.514;13.192;2022-10-31T02:37:26;14.80;99.90
9810;DHT22;4944;52.514;13.192;2022-10-31T02:40:01;14.70;99.90
9810;DHT22;4944;52.514;13.192;2022-10-31T02:42:36;14.70;99.90
9810;DHT22;4944;52.514;13.192;2022-10-31T02:45:11;14.70;99.90
9810;DHT22;4944;52.514;13.192;2022-10-31T02:47:41;14.70;99.90
9810;DHT22;4944;52.514;13.192;2022-10-31T02:50:12;14.70;99.90
9810;DHT22;4944;52.514;13.192;2022-10-31T02:52:40;14.70;99.90
9810;DHT22;4944;52.514;13.192;2022-10-31T02:55:12;14.70;99.90
9810;DHT22;4944;52.514;13.192;2022-10-31T02:57:40;14.70;99.90
9810;DHT22;4944;52.514;13.192;2022-10-31T03:00:09;14.70;99.90
9810;DHT22;4944;52.514;13.192;2022-10-31T03:02:58;14.80;99.90
9810;DHT22;4944;52.514;13.192;2022-10-31T03:05:48;14.80;99.90
9810;DHT22;4944;52.514;13.192;2022-10-31T03:08:23;14.80;99.90
9810;DHT22;4944;52.514;13.192;2022-10-31T03:10:54;14.80;99.90
9810;DHT22;4944;52.514;13.192;2022-10-31T03:13:29;14.80;99.90
9810;DHT22;4944;52.514;13.192;2022-10-31T03:16:07;14.60;99.90
9810;DHT22;4944;52.514;13.192;2022-10-31T03:18:39;14.50;99.90
9810;DHT22;4944;52.514;13.192;2022-10-31T03:21:08;14.50;99.90
9810;DHT22;4944;52.514;13.192;2022-10-31T03:23:37;14.40;99.90
9810;DHT22;4944;52.514;13.192;2022-10-31T03:26:07;14.30;99.90
9810;DHT22;4944;52.514;13.192;2022-10-31T03:28:43;14.40;99.90
9810;DHT22;4944;52.514;13.192;2022-10-31T03:31:15;14.30;99.90
9810;DHT22;4944;52.514;13.192;2022-10-31T03:33:46;14.20;99.90
9810;DHT22;4944;52.514;13.192;2022-10-31T03:36:15;14.20;99.90
9810;DHT22;4944;52.514;13.192;2022-10-31T03:38:45;14.30;99.90
9810;DHT22;4944;52.514;13.192;2022-10-31T03:41:15;14.40;99.90
9810;DHT22;4944;52.514;13.192;2022-10-31T03:43:48;14.40;99.90
9810;DHT22;4944;52.514;13.192;2022-10-31T03:46:17;14.40;99.90
9810;DHT22;4944;52.514;13.192;2022-10-31T03:48:45;14.40;99.90
9810;DHT22;4944;52.514;13.192;2022-10-31T03:51:15;14.40;99.90
9810;DHT22;4944;52.514;13.192;2022-10-31T03:53:47;14.40;99.90
9810;DHT22;4944;52.514;13.192;2022-10-31T03:56:19;14.40;99.90
9810;DHT22;4944;52.514;13.192;2022-10-31T03:58:55;14.40;99.90
9810;DHT22;4944;52.514;13.192;2022-10-31T04:01:25;14.40;99.90
9810;DHT22;4944;52.514;13.192;2022-10-31T04:03:56;14.40;99.90
9810;DHT22;4944;52.514;13.192;2022-10-31T04:06:24;14.40;99.90
9810;DHT22;4944;52.514;13.192;2022-10-31T04:08:56;14.30;99.90
9810;DHT22;4944;52.514;13.192;2022-10-31T04:11:28;14.30;99.90
9810;DHT22;4944;52.514;13.192;2022-10-31T04:13:57;14.30;99.90
9810;DHT22;4944;52.514;13.192;2022-10-31T04:16:25;14.20;99.90
9810;DHT22;4944;52.514;13.192;2022-10-31T04:18:52;14.20;99.90
9810;DHT22;4944;52.514;13.192;2022-10-31T04:21:26;14.20;99.90
9810;DHT22;4944;52.514;13.192;2022-10-31T04:23:53;14.20;99.90
9810;DHT22;4944;52.514;13.192;2022-10-31T04:26:20;14.30;99.90
9810;DHT22;4944;52.514;13.192;2022-10-31T04:28:47;14.20;99.90
9810;DHT22;4944;52.514;13.192;2022-10-31T04:31:14;14.20;99.90
9810;DHT22;4944;52.514;13.192;2022-10-31T04:33:41;14.20;99.90
9810;DHT22;4944;52.514;13.192;2022-10-31T04:36:08;14.20;99.90
9810;DHT22;4944;52.514;13.192;2022-10-31T04:38:36;14.20;99.90
9810;DHT22;4944;52.514;13.192;2022-10-31T04:41:03;14.20;99.90
9810;DHT22;4944;52.514;13.192;2022-10-31T04:43:29;14.10;99.90
9810;DHT22;4944;52.514;13.192;2022-10-31T04:45:56;14.20;99.90
9810;DHT22;4944;52.514;13.192;2022-10-31T04:48:23;14.10;99.90
9810;DHT22;4944;52.514;13.192;2022-10-31T04:50:49;14.20;99.90
9810;DHT22;4944;52.514;13.192;2022-10-31T04:53:16;14.20;99.90
9810;DHT22;4944;52.514;13.192;2022-10-31T04:55:44;14.00;99.90
9810;DHT22;4944;52.514;13.192;2022-10-31T04:58:11;13.90;99.90
9810;DHT22;4944;52.514;13.192;2022-10-31T05:00:38;13.90;99.90
9810;DHT22;4944;52.514;13.192;2022-10-31T05:03:04;13.90;99.90
9810;DHT22;4944;52.514;13.192;2022-10-31T05:05:31;13.80;99.90
9810;DHT22;4944;52.514;13.192;2022-10-31T05:07:58;13.80;99.90
9810;DHT22;4944;52.514;13.192;2022-10-31T05:10:26;13.80;99.90
9810;DHT22;4944;52.514;13.192;2022-10-31T05:12:56;13.90;99.90
9810;DHT22;4944;52.514;13.192;2022-10-31T05:15:24;13.90;99.90
9810;DHT22;4944;52.514;13.192;2022-10-31T05:17:51;13.80;99.90
9810;DHT22;4944;52.514;13.192;2022-10-31T05:20:20;13.90;99.90
9810;DHT22;4944;52.514;13.192;2022-10-31T05:22:49;13.90;99.90
9810;DHT22;4944;52.514;13.192;2022-10-31T05:25:17;13.80;99.90
9810;DHT22;4944;52.514;13.192;2022-10-31T05:27:45;13.80;99.90
9810;DHT22;4944;52.514;13.192;2022-10-31T05:30:16;13.90;99.90
9810;DHT22;4944;52.514;13.192;2022-10-31T05:32:46;13.90;99.90
9810;DHT22;4944;52.514;13.192;2022-10-31T05:35:14;13.90;99.90
9810;DHT22;4944;52.514;13.192;2022-10-31T05:37:41;13.90;99.90
9810;DHT22;4944;52.514;13.192;2022-10-31T05:40:10;13.90;99.90
9810;DHT22;4944;52.514;13.192;2022-10-31T05:42:38;13.90;99.90
9810;DHT22;4944;52.514;13.192;2022-10-31T05:45:06;13.80;99.90
9810;DHT22;4944;52.514;13.192;2022-10-31T05:47:35;13.80;99.90
9810;DHT22;4944;52.514;13.192;2022-10-31T05:50:02;13.80;99.90
9810;DHT22;4944;52.514;13.192;2022-10-31T05:52:29;13.70;99.90
9810;DHT22;4944;52.514;13.192;2022-10-31T05:54:55;13.70;99.90
9810;DHT22;4944;52.514;13.192;2022-10-31T05:57:22;13.60;99.90
9810;DHT22;4944;52.514;13.192;2022-10-31T05:59:49;13.70;99.90
9810;DHT22;4944;52.514;13.192;2022-10-31T06:02:18;13.70;99.90
9810;DHT22;4944;52.514;13.192;2022-10-31T06:04:46;13.70;99.90
9810;DHT22;4944;52.514;13.192;2022-10-31T06:07:13;13.80;99.90
9810;DHT22;4944;52.514;13.192;2022-10-31T06:09:39;13.80;99.90
9810;DHT22;4944;52.514;13.192;2022-10-31T06:12:06;13.80;99.90
9810;DHT22;4944;52.514;13.192;2022-10-31T06:14:33;13.70;99.90
9810;DHT22;4944;52.514;13.192;2022-10-31T06:16:59;13.70;99.90
9810;DHT22;4944;52.514;13.192;2022-10-31T06:19:26;13.80;99.90
9810;DHT22;4944;52.514;13.192;2022-10-31T06:21:54;13.80;99.90
9810;DHT22;4944;52.514;13.192;2022-10-31T06:24:21;13.80;99.90
9810;DHT22;4944;52.514;13.192;2022-10-31T06:26:48;13.80;99.90
9810;DHT22;4944;52.514;13.192;2022-10-31T06:29:14;13.70;99.90
9810;DHT22;4944;52.514;13.192;2022-10-31T06:31:41;13.70;99.90
9810;DHT22;4944;52.514;13.192;2022-10-31T06:34:08;13.80;99.90
9810;DHT22;4944;52.514;13.192;2022-10-31T06:36:35;13.80;99.90
9810;DHT22;4944;52.514;13.192;2022-10-31T06:39:03;13.90;99.90
9810;DHT22;4944;52.514;13.192;2022-10-31T06:41:30;13.90;99.90
9810;DHT22;4944;52.514;13.192;2022-10-31T06:43:56;14.00;99.90
9810;DHT22;4944;52.514;13.192;2022-10-31T06:46:23;14.00;99.90
9810;DHT22;4944;52.514;13.192;2022-10-31T06:48:50;14.00;99.90
9810;DHT22;4944;52.514;13.192;2022-10-31T06:51:16;14.00;99.90
9810;DHT22;4944;52.514;13.192;2022-10-31T06:53:43;14.00;99.90
9810;DHT22;4944;52.514;13.192;2022-10-31T06:56:11;14.00;99.90
9810;DHT22;4944;52.514;13.192;2022-10-31T06:58:38;14.00;99.90
9810;DHT22;4944;52.514;13.192;2022-10-31T07:01:05;14.00;99.90
9810;DHT22;4944;52.514;13.192;2022-10-31T07:03:32;14.10;99.90
9810;DHT22;4944;52.514;13.192;2022-10-31T07:05:59;14.20;99.90
9810;DHT22;4944;52.514;13.192;2022-10-31T07:08:26;14.20;99.90
9810;DHT22;4944;52.514;13.192;2022-10-31T07:10:54;14.20;99.90
9810;DHT22;4944;52.514;13.192;2022-10-31T07:13:23;14.20;99.90
9810;DHT22;4944;52.514;13.192;2022-10-31T07:15:51;14.30;99.90
9810;DHT22;4944;52.514;13.192;2022-10-31T07:18:18;14.30;99.90
9810;DHT22;4944;52.514;13.192;2022-10-31T07:20:46;14.30;99.90
9810;DHT22;4944;52.514;13.192;2022-10-31T07:23:13;14.40;99.90
9810;DHT22;4944;52.514;13.192;2022-10-31T07:25:40;14.30;99.90
9810;DHT22;4944;52.514;13.192;2022-10-31T07:28:07;14.30;99.90
9810;DHT22;4944;52.514;13.192;2022-10-31T07:30:36;14.30;99.90
9810;DHT22;4944;52.514;13.192;2022-10-31T07:33:03;14.30;99.90
9810;DHT22;4944;52.514;13.192;2022-10-31T07:35:30;14.20;99.90
9810;DHT22;4944;52.514;13.192;2022-10-31T07:38:05;14.20;99.90
9810;DHT22;4944;52.514;13.192;2022-10-31T07:40:32;14.20;99.90
9810;DHT22;4944;52.514;13.192;2022-10-31T07:42:59;14.30;99.90
9810;DHT22;4944;52.514;13.192;2022-10-31T07:45:26;14.30;99.90
9810;DHT22;4944;52.514;13.192;2022-10-31T07:47:54;14.30;99.90
9810;DHT22;4944;52.514;13.192;2022-10-31T07:50:22;14.30;99.90
9810;DHT22;4944;52.514;13.192;2022-10-31T07:52:58;14.30;99.90
9810;DHT22;4944;52.514;13.192;2022-10-31T07:55:25;14.20;99.90
9810;DHT22;4944;52.514;13.192;2022-10-31T07:57:56;14.30;99.90
9810;DHT22;4944;52.514;13.192;2022-10-31T08:00:23;14.20;99.90
9810;DHT22;4944;52.514;13.192;2022-10-31T08:02:58;14.20;99.90
9810;DHT22;4944;52.514;13.192;2022-10-31T08:05:24;14.20;99.90
9810;DHT22;4944;52.514;13.192;2022-10-31T08:07:51;14.30;99.90
9810;DHT22;4944;52.514;13.192;2022-10-31T08:10:18;14.40;99.90
9810;DHT22;4944;52.514;13.192;2022-10-31T08:12:45;14.40;99.90
9810;DHT22;4944;52.514;13.192;2022-10-31T08:15:12;14.30;99.90
9810;DHT22;4944;52.514;13.192;2022-10-31T08:17:39;14.30;99.90
9810;DHT22;4944;52.514;13.192;2022-10-31T08:20:08;14.20;99.90
9810;DHT22;4944;52.514;13.192;2022-10-31T08:22:35;14.10;99.90
9810;DHT22;4944;52.514;13.192;2022-10-31T08:25:02;14.20;99.90
9810;DHT22;4944;52.514;13.192;2022-10-31T08:27:29;14.20;99.90
9810;DHT22;4944;52.514;13.192;2022-10-31T08:29:55;14.30;99.90
9810;DHT22;4944;52.514;13.192;2022-10-31T08:32:22;14.40;99.90
9810;DHT22;4944;52.514;13.192;2022-10-31T08:34:49;14.40;99.90
9810;DHT22;4944;52.514;13.192;2022-10-31T08:37:17;14.50;99.90
9810;DHT22;4944;52.514;13.192;2022-10-31T08:39:45;14.60;99.90
9810;DHT22;4944;52.514;13.192;2022-10-31T08:42:12;14.60;99.90
9810;DHT22;4944;52.514;13.192;2022-10-31T08:44:39;14.70;99.90
9810;DHT22;4944;52.514;13.192;2022-10-31T08:47:05;14.70;99.90
9810;DHT22;4944;52.514;13.192;2022-10-31T08:49:32;14.80;99.90
9810;DHT22;4944;52.514;13.192;2022-10-31T08:51:59;14.90;99.90
9810;DHT22;4944;52.514;13.192;2022-10-31T08:54:27;15.00;99.90
9810;DHT22;4944;52.514;13.192;2022-10-31T08:56:54;15.10;99.90
9810;DHT22;4944;52.514;13.192;2022-10-31T08:59:21;15.10;99.90
9810;DHT22;4944;52.514;13.192;2022-10-31T09:01:48;15.20;99.90
9810;DHT22;4944;52.514;13.192;2022-10-31T09:04:15;15.20;99.90
9810;DHT22;4944;52.514;13.192;2022-10-31T09:06:42;15.20;99.90
9810;DHT22;4944;52.514;13.192;2022-10-31T09:09:09;15.30;99.90
9810;DHT22;4944;52.514;13.192;2022-10-31T09:11:37;15.30;99.90
9810;DHT22;4944;52.514;13.192;2022-10-31T09:14:03;15.40;99.90
9810;DHT22;4944;52.514;13.192;2022-10-31T09:16:30;15.40;99.90
9810;DHT22;4944;52.514;13.192;2022-10-31T09:18:57;15.40;99.90
9810;DHT22;4944;52.514;13.192;2022-10-31T09:21:24;15.50;99.90
9810;DHT22;4944;52.514;13.192;2022-10-31T09:23:50;15.60;99.90
9810;DHT22;4944;52.514;13.192;2022-10-31T09:26:19;15.70;99.90
9810;DHT22;4944;52.514;13.192;2022-10-31T09:28:47;15.70;99.90
9810;DHT22;4944;52.514;13.192;2022-10-31T09:31:14;15.70;99.90
9810;DHT22;4944;52.514;13.192;2022-10-31T09:33:41;15.80;99.90
9810;DHT22;4944;52.514;13.192;2022-10-31T09:36:08;16.00;99.90
9810;DHT22;4944;52.514;13.192;2022-10-31T09:38:35;16.10;99.90
9810;DHT22;4944;52.514;13.192;2022-10-31T09:41:12;16.20;99.90
9810;DHT22;4944;52.514;13.192;2022-10-31T09:43:45;16.30;99.90
9810;DHT22;4944;52.514;13.192;2022-10-31T09:46:22;16.30;99.90
9810;DHT22;4944;52.514;13.192;2022-10-31T09:49:01;16.40;99.90
9810;DHT22;4944;52.514;13.192;2022-10-31T09:51:33;16.50;99.90
9810;DHT22;4944;52.514;13.192;2022-10-31T09:54:04;16.60;99.90
9810;DHT22;4944;52.514;13.192;2022-10-31T09:56:32;16.60;99.90
9810;DHT22;4944;52.514;13.192;2022-10-31T09:59:02;16.80;99.90
9810;DHT22;4944;52.514;13.192;2022-10-31T10:01:34;16.90;99.90
9810;DHT22;4944;52.514;13.192;2022-10-31T10:04:14;16.90;99.90
9810;DHT22;4944;52.514;13.192;2022-10-31T10:06:46;17.00;99.90
9810;DHT22;4944;52.514;13.192;2022-10-31T10:09:14;17.10;99.90
9810;DHT22;4944;52.514;13.192;2022-10-31T10:11:50;17.20;99.90
9810;DHT22;4944;52.514;13.192;2022-10-31T10:14:30;17.30;99.90
9810;DHT22;4944;52.514;13.192;2022-10-31T10:17:15;17.40;99.90
9810;DHT22;4944;52.514;13.192;2022-10-31T10:20:08;17.50;99.90
9810;DHT22;4944;52.514;13.192;2022-10-31T10:22:43;17.50;99.90
9810;DHT22;4944;52.514;13.192;2022-10-31T10:25:15;17.60;99.90
9810;DHT22;4944;52.514;13.192;2022-10-31T10:27:49;17.60;99.90
9810;DHT22;4944;52.514;13.192;2022-10-31T10:30:19;17.70;99.90
9810;DHT22;4944;52.514;13.192;2022-10-31T10:32:49;17.70;99.90
9810;DHT22;4944;52.514;13.192;2022-10-31T10:35:22;17.60;99.90
9810;DHT22;4944;52.514;13.192;2022-10-31T10:37:52;17.70;99.90
9810;DHT22;4944;52.514;13.192;2022-10-31T10:40:24;17.80;99.90
9810;DHT22;4944;52.514;13.192;2022-10-31T10:42:59;17.90;99.90
9810;DHT22;4944;52.514;13.192;2022-10-31T10:45:48;18.00;99.90
9810;DHT22;4944;52.514;13.192;2022-10-31T10:48:41;18.10;99.90
9810;DHT22;4944;52.514;13.192;2022-10-31T10:51:19;18.20;99.90
9810;DHT22;4944;52.514;13.192;2022-10-31T10:53:59;18.40;99.90
9810;DHT22;4944;52.514;13.192;2022-10-31T10:56:39;18.50;99.90
9810;DHT22;4944;52.514;13.192;2022-10-31T10:59:09;18.60;99.90
9810;DHT22;4944;52.514;13.192;2022-10-31T11:01:38;18.60;99.90
9810;DHT22;4944;52.514;13.192;2022-10-31T11:04:21;18.70;99.90
9810;DHT22;4944;52.514;13.192;2022-10-31T11:06:57;18.80;99.90
9810;DHT22;4944;52.514;13.192;2022-10-31T11:09:24;18.80;99.90
9810;DHT22;4944;52.514;13.192;2022-10-31T11:11:51;18.80;99.90
9810;DHT22;4944;52.514;13.192;2022-10-31T11:14:18;18.90;99.90
9810;DHT22;4944;52.514;13.192;2022-10-31T11:16:49;19.00;99.90
9810;DHT22;4944;52.514;13.192;2022-10-31T11:19:19;19.10;99.90
9810;DHT22;4944;52.514;13.192;2022-10-31T11:21:47;19.20;99.90
9810;DHT22;4944;52.514;13.192;2022-10-31T11:24:16;19.30;99.90
9810;DHT22;4944;52.514;13.192;2022-10-31T11:26:45;19.40;99.90
9810;DHT22;4944;52.514;13.192;2022-10-31T11:29:16;19.40;99.90
9810;DHT22;4944;52.514;13.192;2022-10-31T11:31:44;19.50;99.90
9810;DHT22;4944;52.514;13.192;2022-10-31T11:34:18;19.60;99.90
9810;DHT22;4944;52.514;13.192;2022-10-31T11:36:47;19.70;99.90
9810;DHT22;4944;52.514;13.192;2022-10-31T11:39:17;19.80;99.90
9810;DHT22;4944;52.514;13.192;2022-10-31T11:41:45;19.80;99.90
9810;DHT22;4944;52.514;13.192;2022-10-31T11:44:14;19.60;99.90
9810;DHT22;4944;52.514;13.192;2022-10-31T11:46:44;19.60;99.90
9810;DHT22;4944;52.514;13.192;2022-10-31T11:49:17;19.60;99.90
9810;DHT22;4944;52.514;13.192;2022-10-31T11:51:49;19.70;99.90
9810;DHT22;4944;52.514;13.192;2022-10-31T11:54:23;19.70;99.90
9810;DHT22;4944;52.514;13.192;2022-10-31T11:56:50;19.60;99.90
9810;DHT22;4944;52.514;13.192;2022-10-31T11:59:22;19.50;99.90
9810;DHT22;4944;52.514;13.192;2022-10-31T12:01:50;19.40;99.90
9810;DHT22;4944;52.514;13.192;2022-10-31T12:04:25;19.40;99.90
9810;DHT22;4944;52.514;13.192;2022-10-31T12:06:54;19.50;99.90
9810;DHT22;4944;52.514;13.192;2022-10-31T12:09:23;19.60;99.90
9810;DHT22;4944;52.514;13.192;2022-10-31T12:12:15;19.50;99.90
9810;DHT22;4944;52.514;13.192;2022-10-31T12:14:53;19.60;99.90
9810;DHT22;4944;52.514;13.192;2022-10-31T12:17:24;19.40;99.90
9810;DHT22;4944;52.514;13.192;2022-10-31T12:20:00;19.40;99.90
9810;DHT22;4944;52.514;13.192;2022-10-31T12:22:38;19.50;99.90
9810;DHT22;4944;52.514;13.192;2022-10-31T12:25:18;19.50;99.90
9810;DHT22;4944;52.514;13.192;2022-10-31T12:28:00;19.60;99.90
9810;DHT22;4944;52.514;13.192;2022-10-31T12:30:39;19.60;99.90
9810;DHT22;4944;52.514;13.192;2022-10-31T12:33:25;19.60;99.90
9810;DHT22;4944;52.514;13.192;2022-10-31T12:36:09;19.60;99.90
9810;DHT22;4944;52.514;13.192;2022-10-31T12:39:07;19.60;99.90
9810;DHT22;4944;52.514;13.192;2022-10-31T12:41:46;19.60;99.90
9810;DHT22;4944;52.514;13.192;2022-10-31T12:44:43;19.50;99.90
9810;DHT22;4944;52.514;13.192;2022-10-31T12:47:31;19.50;99.90
9810;DHT22;4944;52.514;13.192;2022-10-31T12:50:19;19.60;99.90
9810;DHT22;4944;52.514;13.192;2022-10-31T12:52:56;19.60;99.90
9810;DHT22;4944;52.514;13.192;2022-10-31T12:55:38;19.40;99.90
9810;DHT22;4944;52.514;13.192;2022-10-31T12:58:10;19.40;99.90
9810;DHT22;4944;52.514;13.192;2022-10-31T13:00:45;19.40;99.90
9810;DHT22;4944;52.514;13.192;2022-10-31T13:03:23;19.40;99.90
9810;DHT22;4944;52.514;13.192;2022-10-31T13:05:54;19.40;99.90
9810;DHT22;4944;52.514;13.192;2022-10-31T13:08:28;19.40;99.90
9810;DHT22;4944;52.514;13.192;2022-10-31T13:11:05;19.50;99.90
9810;DHT22;4944;52.514;13.192;2022-10-31T13:13:35;19.40;99.90
9810;DHT22;4944;52.514;13.192;2022-10-31T13:16:10;19.30;99.90
9810;DHT22;4944;52.514;13.192;2022-10-31T13:18:40;19.20;99.90
9810;DHT22;4944;52.514;13.192;2022-10-31T13:21:15;19.10;99.90
9810;DHT22;4944;52.514;13.192;2022-10-31T13:23:46;19.00;99.90
9810;DHT22;4944;52.514;13.192;2022-10-31T13:26:21;18.90;99.90
9810;DHT22;4944;52.514;13.192;2022-10-31T13:28:54;19.00;99.90
9810;DHT22;4944;52.514;13.192;2022-10-31T13:31:22;19.10;99.90
9810;DHT22;4944;52.514;13.192;2022-10-31T13:33:52;19.10;99.90
9810;DHT22;4944;52.514;13.192;2022-10-31T13:36:25;19.00;99.90
9810;DHT22;4944;52.514;13.192;2022-10-31T13:39:01;18.90;99.90
9810;DHT22;4944;52.514;13.192;2022-10-31T13:41:40;18.70;99.90
9810;DHT22;4944;52.514;13.192;2022-10-31T13:44:13;18.60;99.90
9810;DHT22;4944;52.514;13.192;2022-10-31T13:46:42;18.30;99.90
9810;DHT22;4944;52.514;13.192;2022-10-31T13:49:36;18.10;99.90
9810;DHT22;4944;52.514;13.192;2022-10-31T13:52:29;17.90;99.90
9810;DHT22;4944;52.514;13.192;2022-10-31T13:54:57;17.90;99.90
9810;DHT22;4944;52.514;13.192;2022-10-31T13:57:30;17.80;99.90
9810;DHT22;4944;52.514;13.192;2022-10-31T14:00:00;17.70;99.90
9810;DHT22;4944;52.514;13.192;2022-10-31T14:02:29;17.60;99.90
9810;DHT22;4944;52.514;13.192;2022-10-31T14:04:58;17.60;99.90
9810;DHT22;4944;52.514;13.192;2022-10-31T14:07:26;17.50;99.90
9810;DHT22;4944;52.514;13.192;2022-10-31T14:09:58;17.40;99.90
9810;DHT22;4944;52.514;13.192;2022-10-31T14:12:29;17.40;99.90
9810;DHT22;4944;52.514;13.192;2022-10-31T14:15:00;17.40;99.90
9810;DHT22;4944;52.514;13.192;2022-10-31T14:17:45;17.40;99.90
9810;DHT22;4944;52.514;13.192;2022-10-31T14:20:26;17.30;99.90
9810;DHT22;4944;52.514;13.192;2022-10-31T14:22:57;17.30;99.90
9810;DHT22;4944;52.514;13.192;2022-10-31T14:25:31;17.30;99.90
9810;DHT22;4944;52.514;13.192;2022-10-31T14:27:59;17.20;99.90
9810;DHT22;4944;52.514;13.192;2022-10-31T14:30:28;17.20;99.90
9810;DHT22;4944;52.514;13.192;2022-10-31T14:32:58;17.20;99.90
9810;DHT22;4944;52.514;13.192;2022-10-31T14:35:42;17.30;99.90
9810;DHT22;4944;52.514;13.192;2022-10-31T14:38:25;17.30;99.90
9810;DHT22;4944;52.514;13.192;2022-10-31T14:41:21;17.20;99.90
9810;DHT22;4944;52.514;13.192;2022-10-31T14:47:10;17.20;99.90
9810;DHT22;4944;52.514;13.192;2022-10-31T14:50:09;17.10;99.90
9810;DHT22;4944;52.514;13.192;2022-10-31T14:52:38;17.00;99.90
9810;DHT22;4944;52.514;13.192;2022-10-31T14:55:10;17.00;99.90
9810;DHT22;4944;52.514;13.192;2022-10-31T14:57:46;16.90;99.90
9810;DHT22;4944;52.514;13.192;2022-10-31T15:00:17;16.90;99.90
9810;DHT22;4944;52.514;13.192;2022-10-31T15:02:54;16.80;99.90
9810;DHT22;4944;52.514;13.192;2022-10-31T15:05:23;16.80;99.90
9810;DHT22;4944;52.514;13.192;2022-10-31T15:07:52;16.80;99.90
9810;DHT22;4944;52.514;13.192;2022-10-31T15:10:21;16.80;99.90
9810;DHT22;4944;52.514;13.192;2022-10-31T15:12:49;16.70;99.90
9810;DHT22;4944;52.514;13.192;2022-10-31T15:15:19;16.80;99.90
9810;DHT22;4944;52.514;13.192;2022-10-31T15:17:48;16.80;99.90
9810;DHT22;4944;52.514;13.192;2022-10-31T15:20:19;16.80;99.90
9810;DHT22;4944;52.514;13.192;2022-10-31T15:22:47;16.80;99.90
9810;DHT22;4944;52.514;13.192;2022-10-31T15:25:18;16.80;99.90
9810;DHT22;4944;52.514;13.192;2022-10-31T15:27:46;16.70;99.90
9810;DHT22;4944;52.514;13.192;2022-10-31T15:30:20;16.70;99.90
9810;DHT22;4944;52.514;13.192;2022-10-31T15:32:47;16.70;99.90
9810;DHT22;4944;52.514;13.192;2022-10-31T15:35:21;16.70;99.90
9810;DHT22;4944;52.514;13.192;2022-10-31T15:37:48;16.70;99.90
9810;DHT22;4944;52.514;13.192;2022-10-31T15:40:16;16.70;99.90
9810;DHT22;4944;52.514;13.192;2022-10-31T15:42:49;16.70;99.90
9810;DHT22;4944;52.514;13.192;2022-10-31T15:45:20;16.60;99.90
9810;DHT22;4944;52.514;13.192;2022-10-31T15:47:53;16.60;99.90
9810;DHT22;4944;52.514;13.192;2022-10-31T15:50:26;16.60;99.90
9810;DHT22;4944;52.514;13.192;2022-10-31T15:52:54;16.60;99.90
9810;DHT22;4944;52.514;13.192;2022-10-31T15:55:22;16.50;99.90
9810;DHT22;4944;52.514;13.192;2022-10-31T15:57:51;16.50;99.90
9810;DHT22;4944;52.514;13.192;2022-10-31T16:00:24;16.50;99.90
9810;DHT22;4944;52.514;13.192;2022-10-31T16:03:03;16.50;99.90
9810;DHT22;4944;52.514;13.192;2022-10-31T16:05:36;16.50;99.90
9810;DHT22;4944;52.514;13.192;2022-10-31T16:08:03;16.50;99.90
9810;DHT22;4944;52.514;13.192;2022-10-31T16:10:33;16.50;99.90
9810;DHT22;4944;52.514;13.192;2022-10-31T16:13:01;16.50;99.90
9810;DHT22;4944;52.514;13.192;2022-10-31T16:15:29;16.40;99.90
9810;DHT22;4944;52.514;13.192;2022-10-31T16:17:58;16.40;99.90